Orbital elements of FENGYUN 1C DEB
| Launched | 9 May 1999 |
| Flight ended | – |
| Launch site | Taiyuan Space Center, PRC |
| Owner | People's Republic of China |
| NORAD ID | 30447 |
| Date fetched |
Epoch osculation |
Inc. [°] |
Ecc. | RA asc node [hr] |
Arg Peri. [°] |
Mean anom [°] |
Mean motion [rev/day] |
Abs. mag |
| Date fetched |
Epoch osculation |
Inc. [°] |
Ecc. | RA asc node [hr] |
Arg Peri. [°] |
Mean anom [°] |
Mean motion [rev/day] |
Abs. mag |
| 2026 May 05 17:57 | 2026 May 05 10:11:46 | 98.9662 | 0.00556 | 0.2180 | 317.4273 | 121.6596 | 14.59791 | – |
| 2026 May 04 17:57 | 2026 Apr 30 14:55:29 | 98.9674 | 0.00563 | 23.8721 | 331.8937 | 121.6596 | 14.59791 | – |
| 2026 May 03 17:57 | 2026 Apr 30 14:55:29 | 98.9674 | 0.00563 | 23.8721 | 331.8937 | 121.6596 | 14.59791 | – |
| 2026 May 02 17:57 | 2026 Apr 30 14:55:29 | 98.9674 | 0.00563 | 23.8721 | 331.8937 | 121.6596 | 14.59791 | – |
| 2026 May 01 17:56 | 2026 Apr 30 14:55:29 | 98.9674 | 0.00563 | 23.8721 | 331.8937 | 121.6596 | 14.59791 | – |
| 2026 Apr 30 17:56 | 2026 Apr 30 14:55:29 | 98.9674 | 0.00563 | 23.8721 | 331.8937 | 121.6596 | 14.59791 | – |
| 2026 Apr 29 17:57 | 2026 Apr 24 06:14:17 | 98.9680 | 0.00572 | 23.4139 | 350.8351 | 121.6596 | 14.59791 | – |
| 2026 Apr 28 17:56 | 2026 Apr 24 06:14:17 | 98.9680 | 0.00572 | 23.4139 | 350.8351 | 121.6596 | 14.59791 | – |
| 2026 Apr 27 17:58 | 2026 Apr 24 06:14:17 | 98.9680 | 0.00572 | 23.4139 | 350.8351 | 121.6596 | 14.59791 | – |
| 2026 Apr 26 17:58 | 2026 Apr 24 06:14:17 | 98.9680 | 0.00572 | 23.4139 | 350.8351 | 121.6596 | 14.59791 | – |
| 2026 Apr 25 17:58 | 2026 Apr 24 06:14:17 | 98.9680 | 0.00572 | 23.4139 | 350.8351 | 121.6596 | 14.59791 | – |
| 2026 Apr 24 17:59 | 2026 Apr 24 06:14:17 | 98.9680 | 0.00572 | 23.4139 | 350.8351 | 121.6596 | 14.59791 | – |
| 2026 Apr 23 17:57 | 2026 Apr 19 03:00:56 | 98.9676 | 0.00577 | 23.0442 | 5.9802 | 121.6596 | 14.59791 | – |
| 2026 Apr 22 17:57 | 2026 Apr 19 03:00:56 | 98.9676 | 0.00577 | 23.0442 | 5.9802 | 121.6596 | 14.59791 | – |
| 2026 Apr 21 17:57 | 2026 Apr 19 03:00:56 | 98.9676 | 0.00577 | 23.0442 | 5.9802 | 121.6596 | 14.59791 | – |
| 2026 Apr 20 17:57 | 2026 Apr 19 03:00:56 | 98.9676 | 0.00577 | 23.0442 | 5.9802 | 121.6596 | 14.59791 | – |
| 2026 Apr 19 17:58 | 2026 Apr 19 03:00:56 | 98.9676 | 0.00577 | 23.0442 | 5.9802 | 121.6596 | 14.59791 | – |
| 2026 Apr 18 17:56 | 2026 Apr 12 03:08:48 | 98.9686 | 0.00581 | 22.5406 | 26.5471 | 121.6596 | 14.59791 | – |
| 2026 Apr 16 17:57 | 2026 Apr 12 03:08:48 | 98.9686 | 0.00581 | 22.5406 | 26.5471 | 121.6596 | 14.59791 | – |
| 2026 Apr 14 17:57 | 2026 Apr 12 03:08:48 | 98.9686 | 0.00581 | 22.5406 | 26.5471 | 121.6596 | 14.59791 | – |
| 2026 Apr 13 17:57 | 2026 Apr 12 03:08:48 | 98.9686 | 0.00581 | 22.5406 | 26.5471 | 121.6596 | 14.59791 | – |
| 2026 Apr 12 17:57 | 2026 Apr 08 14:40:05 | 98.9681 | 0.00581 | 22.2871 | 36.8320 | 121.6596 | 14.59791 | – |
| 2026 Apr 11 17:57 | 2026 Apr 08 14:40:05 | 98.9681 | 0.00581 | 22.2871 | 36.8320 | 121.6596 | 14.59791 | – |
| 2026 Apr 10 17:58 | 2026 Apr 08 14:40:05 | 98.9681 | 0.00581 | 22.2871 | 36.8320 | 121.6596 | 14.59791 | – |
| 2026 Apr 09 18:01 | 2026 Apr 08 14:40:05 | 98.9681 | 0.00581 | 22.2871 | 36.8320 | 121.6596 | 14.59791 | – |
| 2026 Apr 08 17:57 | 2026 Apr 08 14:40:05 | 98.9681 | 0.00581 | 22.2871 | 36.8320 | 121.6596 | 14.59791 | – |